Time;durP1;ratioP1;P1;durP2;ratioP2;P2;SDS_P1;SDS_P2;PMS_P1;PMS_P2;Temp;Humidity;BMP_temperature;BMP_pressure;BME280_temperature;BME280_humidity;BME280_pressure;Samples;Min_cycle;Max_cycle;Signal;HPM_P1;HPM_P2
2021/06/07 00:00:38;;;;;;;5.93;5.33;;;;;;;13.74;51.39;100480.24;153946;1101;103195;-80
2021/06/07 00:03:43;;;;;;;6.45;5.35;;;;;;;13.73;51.42;100480.41;153955;1101;103483;-78
2021/06/07 00:06:49;;;;;;;6.33;5.25;;;;;;;13.68;51.71;100486.28;153925;1097;103262;-78
2021/06/07 00:09:53;;;;;;;6.60;5.77;;;;;;;13.70;51.61;100488.77;153959;1101;103371;-78
2021/06/07 00:12:58;;;;;;;6.13;5.28;;;;;;;13.72;52.09;100476.03;153979;1101;103122;-79
2021/06/07 00:16:03;;;;;;;5.53;5.00;;;;;;;13.70;51.78;100483.41;154015;1101;103152;-83
2021/06/07 00:19:10;;;;;;;5.85;5.23;;;;;;;13.68;51.80;100475.55;154107;1101;103217;-83
2021/06/07 00:22:15;;;;;;;6.73;5.68;;;;;;;13.65;52.00;100480.41;154096;1101;103158;-83
2021/06/07 00:25:20;;;;;;;7.50;6.05;;;;;;;13.60;51.85;100486.26;154104;1101;103191;-84
2021/06/07 00:28:25;;;;;;;7.63;6.53;;;;;;;13.57;52.01;100486.61;154171;1097;103230;-83
2021/06/07 00:31:29;;;;;;;7.63;6.10;;;;;;;13.54;52.15;100486.93;154146;1101;103202;-83
2021/06/07 00:34:34;;;;;;;7.45;5.85;;;;;;;13.50;52.42;100477.55;154000;1096;103333;-83
2021/06/07 00:37:39;;;;;;;7.43;5.87;;;;;;;13.48;52.59;100482.24;154068;1101;103203;-83
2021/06/07 00:40:44;;;;;;;7.27;5.20;;;;;;;13.46;52.86;100489.61;154085;1101;103205;-84
2021/06/07 00:43:51;;;;;;;6.43;5.08;;;;;;;13.43;52.46;100487.25;154136;1101;103181;-80
2021/06/07 00:46:56;;;;;;;8.80;6.10;;;;;;;13.40;52.55;100490.28;153985;1101;103245;-75
2021/06/07 00:50:00;;;;;;;6.37;4.93;;;;;;;13.34;53.09;100486.42;153971;1101;103615;-77
2021/06/07 00:53:06;;;;;;;6.85;5.28;;;;;;;13.29;52.65;100488.72;153975;1097;103198;-77
2021/06/07 00:56:12;;;;;;;6.47;5.40;;;;;;;13.24;53.31;100491.91;153972;1101;103208;-79
2021/06/07 00:59:17;;;;;;;7.47;5.40;;;;;;;13.21;53.34;100494.90;154026;1101;103502;-82
2021/06/07 01:02:22;;;;;;;7.10;6.00;;;;;;;13.21;53.41;100494.07;154050;1101;103147;-81
2021/06/07 01:05:27;;;;;;;7.03;5.65;;;;;;;13.16;53.34;100491.86;154016;1097;103046;-79
2021/06/07 01:08:32;;;;;;;7.18;5.88;;;;;;;13.15;53.36;100492.88;154030;1095;103133;-79
2021/06/07 01:11:38;;;;;;;6.50;5.50;;;;;;;13.12;53.27;100495.88;153961;1095;103254;-79
2021/06/07 01:14:42;;;;;;;6.30;5.33;;;;;;;13.09;53.34;100486.34;154055;1101;103196;-79
2021/06/07 01:17:48;;;;;;;6.57;4.90;;;;;;;13.08;53.89;100497.21;154249;1101;103199;-79
2021/06/07 01:20:57;;;;;;;5.87;5.20;;;;;;;13.01;53.37;100488.14;153991;1101;103117;-80
2021/06/07 01:24:01;;;;;;;5.70;5.10;;;;;;;12.97;54.07;100490.30;154022;1097;103167;-79
2021/06/07 01:27:08;;;;;;;7.37;5.50;;;;;;;12.94;53.44;100488.80;153946;1094;103289;-78
2021/06/07 01:30:17;;;;;;;6.00;5.25;;;;;;;12.91;54.22;100480.25;154011;1101;103198;-79
2021/06/07 01:33:23;;;;;;;6.63;5.60;;;;;;;12.87;53.64;100492.29;153997;1101;103132;-79
2021/06/07 01:36:28;;;;;;;11.15;5.65;;;;;;;12.83;54.22;100481.06;154065;1101;103135;-80
2021/06/07 01:39:33;;;;;;;6.50;5.50;;;;;;;12.80;54.09;100492.11;153951;1101;103147;-81
2021/06/07 01:42:37;;;;;;;6.90;5.18;;;;;;;12.76;54.10;100485.41;153938;1095;103730;-81
2021/06/07 01:45:45;;;;;;;6.70;5.25;;;;;;;12.75;53.93;100481.04;154125;1101;103570;-82
2021/06/07 01:48:49;;;;;;;7.17;5.53;;;;;;;12.69;54.70;100489.72;153947;1101;103199;-77
2021/06/07 01:51:54;;;;;;;6.50;5.23;;;;;;;12.65;54.28;100486.52;153923;1097;103129;-80
2021/06/07 01:54:59;;;;;;;5.63;5.00;;;;;;;12.65;54.02;100483.84;154022;1096;103242;-81
2021/06/07 01:58:05;;;;;;;5.43;4.85;;;;;;;12.62;54.68;100486.00;153955;1101;103290;-79
2021/06/07 02:01:12;;;;;;;6.20;5.03;;;;;;;12.61;54.86;100493.20;154115;1096;103197;-79
2021/06/07 02:04:16;;;;;;;5.90;5.00;;;;;;;12.55;54.51;100488.50;154034;1101;103196;-75
2021/06/07 02:07:21;;;;;;;5.88;5.15;;;;;;;12.50;54.55;100486.28;153928;1097;103154;-77
2021/06/07 02:10:28;;;;;;;6.35;5.45;;;;;;;12.49;54.33;100484.62;153932;1101;103116;-76
2021/06/07 02:13:33;;;;;;;7.00;5.75;;;;;;;12.46;54.81;100487.60;153907;1096;103282;-75
2021/06/07 02:16:39;;;;;;;8.03;6.20;;;;;;;12.45;54.64;100488.62;153983;1101;103131;-77
2021/06/07 02:19:48;;;;;;;7.37;5.97;;;;;;;12.41;54.62;100491.75;153971;1101;103136;-74
2021/06/07 02:22:53;;;;;;;6.87;5.63;;;;;;;12.37;54.98;100485.88;153978;1101;103246;-76
2021/06/07 02:25:58;;;;;;;9.00;5.53;;;;;;;12.36;54.66;100489.56;154003;1101;103217;-74
2021/06/07 02:29:07;;;;;;;6.40;5.73;;;;;;;12.36;55.26;100489.56;153923;1101;103365;-74
2021/06/07 02:32:12;;;;;;;7.17;5.87;;;;;;;12.35;55.14;100493.23;153968;1101;103195;-74
2021/06/07 02:35:19;;;;;;;7.97;6.37;;;;;;;12.34;54.76;100494.24;153985;1096;103123;-77
2021/06/07 02:38:24;;;;;;;6.40;5.77;;;;;;;12.28;54.69;100490.36;154089;1101;103131;-75
2021/06/07 02:41:29;;;;;;;6.77;6.07;;;;;;;12.29;55.54;100493.87;154101;1096;103502;-77
2021/06/07 02:44:33;;;;;;;7.03;5.97;;;;;;;12.30;55.41;100490.20;154051;1101;103193;-78
2021/06/07 02:47:39;;;;;;;6.93;6.20;;;;;;;12.33;56.05;100487.20;154275;1096;103134;-78
2021/06/07 02:50:46;;;;;;;7.20;6.10;;;;;;;12.35;55.54;100490.55;153978;1096;103214;-73
2021/06/07 02:53:51;;;;;;;6.55;5.85;;;;;;;12.34;55.40;100481.69;153958;1095;103224;-74
2021/06/07 02:56:55;;;;;;;7.05;5.85;;;;;;;12.36;55.66;100487.72;153990;1101;103099;-73
2021/06/07 03:00:00;;;;;;;7.80;6.53;;;;;;;12.36;55.87;100484.22;153958;1101;103216;-72
2021/06/07 03:03:06;;;;;;;9.15;6.73;;;;;;;12.36;55.89;100490.40;154029;1096;103198;-72
2021/06/07 03:06:11;;;;;;;8.50;6.00;;;;;;;12.39;55.62;100491.91;154070;1097;103153;-74
2021/06/07 03:09:16;;;;;;;8.87;6.00;;;;;;;12.46;55.68;100492.95;153945;1097;103138;-73
2021/06/07 03:12:21;;;;;;;7.50;6.70;;;;;;;12.58;56.38;100488.98;153985;1101;103197;-74
2021/06/07 03:15:26;;;;;;;7.33;6.43;;;;;;;12.77;55.57;100495.10;154026;1101;103272;-74
2021/06/07 03:18:31;;;;;;;6.57;5.70;;;;;;;12.95;55.59;100493.17;154015;1094;103196;-73
2021/06/07 03:21:35;;;;;;;6.50;5.40;;;;;;;13.26;55.52;100494.39;153985;1096;103208;-74
2021/06/07 03:24:40;;;;;;;7.15;6.15;;;;;;;13.51;55.41;100490.80;153929;1096;104528;-73
2021/06/07 03:27:45;;;;;;;6.90;6.13;;;;;;;13.80;55.61;100500.19;153939;1096;103135;-74
2021/06/07 03:30:52;;;;;;;7.78;6.55;;;;;;;14.10;55.48;100490.58;153947;1101;103299;-74
2021/06/07 03:33:56;;;;;;;6.83;5.80;;;;;;;14.40;55.55;100496.23;154001;1101;103196;-75
2021/06/07 03:37:01;;;;;;;6.67;5.97;;;;;;;14.73;55.28;100496.98;153939;1097;103131;-74
2021/06/07 03:40:11;;;;;;;7.07;6.37;;;;;;;15.06;55.21;100495.98;153929;1101;103142;-74
2021/06/07 03:43:17;;;;;;;7.87;6.00;;;;;;;15.34;55.05;100499.02;154000;1101;103133;-74
2021/06/07 03:46:21;;;;;;;9.03;8.13;;;;;;;15.65;54.89;100498.95;153964;1096;103372;-74
2021/06/07 03:49:26;;;;;;;8.35;7.50;;;;;;;15.92;54.69;100495.89;153943;1097;103195;-74
2021/06/07 03:52:30;;;;;;;7.33;6.63;;;;;;;16.13;54.81;100495.19;153933;1101;103164;-75
2021/06/07 03:55:36;;;;;;;7.83;6.50;;;;;;;16.34;54.85;100500.71;153950;1097;103560;-74
2021/06/07 03:58:40;;;;;;;6.77;6.07;;;;;;;16.55;54.77;100493.73;153952;1101;103132;-74
2021/06/07 04:01:46;;;;;;;6.33;5.60;;;;;;;16.73;54.81;100494.19;153953;1101;103226;-74
2021/06/07 04:04:51;;;;;;;8.27;6.50;;;;;;;16.97;55.06;100501.14;153977;1101;103181;-74
2021/06/07 04:07:56;;;;;;;8.10;6.90;;;;;;;17.18;54.79;100508.44;153963;1101;103139;-75
2021/06/07 04:11:01;;;;;;;10.78;6.90;;;;;;;17.42;54.79;100520.75;153931;1101;103574;-75
2021/06/07 04:14:05;;;;;;;7.40;6.68;;;;;;;17.63;54.55;100511.83;153955;1101;103132;-75
2021/06/07 04:17:10;;;;;;;10.53;7.00;;;;;;;17.88;54.63;100519.56;153954;1101;103285;-75
2021/06/07 04:20:17;;;;;;;7.60;6.80;;;;;;;18.11;54.52;100511.23;154001;1094;103196;-74
2021/06/07 04:23:23;;;;;;;8.15;7.35;;;;;;;18.32;54.08;100514.89;153917;1096;103193;-75
2021/06/07 04:26:27;;;;;;;9.03;7.50;;;;;;;18.37;54.29;100517.84;154018;1096;103202;-75
2021/06/07 04:29:32;;;;;;;7.53;6.73;;;;;;;18.52;53.86;100520.44;153933;1097;103154;-74
2021/06/07 04:32:38;;;;;;;7.93;7.13;;;;;;;18.52;53.64;100515.03;153983;1096;103317;-75
2021/06/07 04:35:42;;;;;;;8.18;7.08;;;;;;;18.55;53.45;100520.88;154014;1101;103128;-75
2021/06/07 04:38:47;;;;;;;8.20;6.55;;;;;;;18.59;53.50;100515.88;153932;1097;103114;-75
2021/06/07 04:41:52;;;;;;;9.47;6.20;;;;;;;18.70;53.42;100518.02;153936;1096;103200;-73
2021/06/07 04:44:56;;;;;;;8.00;7.13;;;;;;;18.82;53.42;100516.47;153952;1101;103142;-74
2021/06/07 04:48:01;;;;;;;7.93;7.13;;;;;;;18.91;53.20;100519.00;153935;1101;103270;-73
2021/06/07 04:51:06;;;;;;;9.38;7.00;;;;;;;18.98;53.12;100517.16;153998;1101;103119;-75
2021/06/07 04:54:11;;;;;;;8.43;6.83;;;;;;;19.01;53.54;100524.85;153935;1095;103195;-74
2021/06/07 04:57:15;;;;;;;9.75;7.48;;;;;;;19.08;52.98;100514.08;153927;1101;103110;-75
2021/06/07 05:00:22;;;;;;;7.90;6.63;;;;;;;19.16;53.01;100520.13;153954;1101;103133;-75
2021/06/07 05:03:28;;;;;;;9.30;7.18;;;;;;;19.31;53.02;100522.67;153986;1097;103257;-74
2021/06/07 05:06:32;;;;;;;7.45;6.53;;;;;;;19.43;53.04;100515.61;153996;1095;103260;-75
2021/06/07 05:09:37;;;;;;;7.00;5.93;;;;;;;19.53;52.73;100517.92;153962;1101;103131;-74
2021/06/07 05:12:41;;;;;;;7.60;6.57;;;;;;;19.70;52.73;100512.95;153897;1096;103224;-74
2021/06/07 05:15:46;;;;;;;7.35;6.65;;;;;;;19.83;52.11;100516.77;153952;1096;103122;-74
2021/06/07 05:18:51;;;;;;;8.53;6.70;;;;;;;19.76;52.40;100522.16;153913;1097;103207;-74
2021/06/07 05:21:55;;;;;;;6.95;6.05;;;;;;;19.73;52.03;100519.88;153942;1101;103124;-75
2021/06/07 05:25:00;;;;;;;6.70;6.00;;;;;;;19.85;52.01;100526.33;153959;1096;103156;-75
2021/06/07 05:28:07;;;;;;;6.40;5.78;;;;;;;20.03;52.35;100522.99;153899;1101;103197;-77
2021/06/07 05:31:12;;;;;;;5.80;5.15;;;;;;;20.23;51.96;100519.43;153974;1097;103196;-75
2021/06/07 05:34:16;;;;;;;8.35;6.20;;;;;;;20.34;51.56;100525.07;153933;1096;103218;-74
2021/06/07 05:37:21;;;;;;;6.13;5.50;;;;;;;20.42;51.58;100515.89;154102;1101;103123;-74
2021/06/07 05:40:28;;;;;;;7.40;5.70;;;;;;;20.57;51.54;100523.75;154032;1101;103211;-77
2021/06/07 05:43:33;;;;;;;7.38;5.63;;;;;;;20.67;51.39;100517.92;153940;1101;103188;-77
2021/06/07 05:46:37;;;;;;;7.53;5.97;;;;;;;20.77;51.33;100521.86;154124;1101;103118;-77
2021/06/07 05:49:42;;;;;;;6.37;5.27;;;;;;;20.84;50.83;100524.53;154037;1097;103235;-75
2021/06/07 05:52:47;;;;;;;6.50;5.37;;;;;;;20.90;50.97;100529.13;154013;1095;103195;-73
2021/06/07 05:55:52;;;;;;;6.58;5.70;;;;;;;20.88;51.05;100528.52;153949;1101;103216;-75
2021/06/07 05:58:57;;;;;;;8.53;5.48;;;;;;;20.85;50.49;100515.36;153943;1096;103128;-75
2021/06/07 06:02:02;;;;;;;7.30;5.60;;;;;;;20.86;50.69;100522.47;153957;1101;103146;-75
2021/06/07 06:05:09;;;;;;;6.03;4.85;;;;;;;20.95;50.42;100523.05;153942;1101;103212;-75
2021/06/07 06:08:14;;;;;;;8.15;5.70;;;;;;;20.99;50.12;100526.98;153996;1101;103100;-76
2021/06/07 06:11:19;;;;;;;6.40;4.88;;;;;;;20.99;50.01;100532.41;154014;1097;103218;-76
2021/06/07 06:14:24;;;;;;;7.47;5.33;;;;;;;21.03;49.99;100533.65;154026;1094;103029;-74
2021/06/07 06:17:29;;;;;;;8.18;5.40;;;;;;;21.06;49.91;100533.23;153993;1095;103548;-74
2021/06/07 06:20:33;;;;;;;5.40;4.80;;;;;;;20.98;49.82;100530.77;153935;1101;103339;-76
2021/06/07 06:23:39;;;;;;;8.85;5.10;;;;;;;20.99;49.03;100535.13;153959;1101;103126;-75
2021/06/07 06:26:43;;;;;;;5.13;4.43;;;;;;;20.93;49.76;100535.99;154049;1094;103128;-74
2021/06/07 06:29:48;;;;;;;7.00;4.70;;;;;;;20.92;49.33;100537.02;153922;1097;104126;-76
2021/06/07 06:32:56;;;;;;;5.03;4.35;;;;;;;20.87;49.33;100539.57;153956;1101;103606;-76
2021/06/07 06:36:01;;;;;;;5.50;4.73;;;;;;;20.84;49.56;100534.56;153930;1101;103251;-76
2021/06/07 06:39:07;;;;;;;6.20;4.78;;;;;;;20.87;48.71;100542.28;153967;1101;103234;-77
2021/06/07 06:42:13;;;;;;;6.73;4.15;;;;;;;20.89;48.75;100537.47;153939;1101;103190;-75
2021/06/07 06:45:18;;;;;;;8.43;4.13;;;;;;;20.98;49.22;100537.02;153966;1097;103196;-76
2021/06/07 06:48:23;;;;;;;6.28;4.73;;;;;;;21.07;48.79;100545.73;153962;1096;103152;-76
2021/06/07 06:51:27;;;;;;;7.17;4.00;;;;;;;21.10;49.12;100542.59;153907;1101;103219;-75
2021/06/07 06:54:32;;;;;;;4.68;4.18;;;;;;;21.20;48.81;100533.17;154004;1096;103548;-77
2021/06/07 06:57:36;;;;;;;4.50;4.10;;;;;;;21.26;47.93;100546.69;153975;1101;103196;-73
2021/06/07 07:00:42;;;;;;;5.17;4.33;;;;;;;21.24;48.02;100545.25;153963;1095;103199;-76
2021/06/07 07:03:49;;;;;;;5.17;4.13;;;;;;;21.23;48.44;100549.00;153971;1101;103122;-75
2021/06/07 07:06:54;;;;;;;6.35;4.00;;;;;;;21.30;48.38;100538.95;153945;1096;103296;-75
2021/06/07 07:09:59;;;;;;;6.25;3.88;;;;;;;21.37;47.85;100550.62;153951;1101;103150;-75
2021/06/07 07:13:03;;;;;;;4.28;3.83;;;;;;;21.44;47.79;100547.88;153941;1101;103176;-74
2021/06/07 07:16:08;;;;;;;4.17;3.60;;;;;;;21.52;47.57;100553.08;153953;1096;103130;-76
2021/06/07 07:19:13;;;;;;;3.98;3.48;;;;;;;21.54;46.67;100551.80;153926;1097;103114;-76
2021/06/07 07:22:18;;;;;;;4.43;3.63;;;;;;;21.51;47.29;100554.11;153956;1096;103266;-75
2021/06/07 07:25:23;;;;;;;3.90;3.50;;;;;;;21.50;46.51;100556.00;153963;1097;103129;-76
2021/06/07 07:28:28;;;;;;;4.97;3.70;;;;;;;21.52;46.46;100559.33;153926;1097;103204;-76
2021/06/07 07:31:33;;;;;;;3.83;3.43;;;;;;;21.56;45.40;100560.55;153981;1101;103128;-76
2021/06/07 07:34:40;;;;;;;5.20;3.63;;;;;;;21.64;45.64;100558.64;153981;1101;103105;-76
2021/06/07 07:37:45;;;;;;;4.30;3.60;;;;;;;21.66;45.94;100565.51;153917;1101;103271;-76
2021/06/07 07:40:49;;;;;;;5.30;3.50;;;;;;;21.70;45.73;100564.02;153984;1095;103190;-74
2021/06/07 07:43:54;;;;;;;4.23;3.73;;;;;;;21.75;46.01;100558.77;153953;1096;103116;-76
2021/06/07 07:47:00;;;;;;;5.17;3.90;;;;;;;21.84;46.04;100567.47;154074;1101;103246;-73
2021/06/07 07:50:08;;;;;;;4.85;3.40;;;;;;;21.93;45.99;100565.33;154139;1096;103136;-75
2021/06/07 07:53:13;;;;;;;4.13;3.40;;;;;;;22.00;45.98;100559.83;153996;1093;103308;-75
2021/06/07 07:56:19;;;;;;;4.27;3.30;;;;;;;22.07;45.89;100549.75;154007;1101;103129;-75
2021/06/07 07:59:24;;;;;;;4.30;3.40;;;;;;;22.14;44.43;100561.40;153959;1101;103125;-75
2021/06/07 08:02:29;;;;;;;5.73;3.80;;;;;;;22.15;45.38;100554.89;153915;1101;103195;-75
2021/06/07 08:05:34;;;;;;;4.03;3.27;;;;;;;22.22;44.98;100555.67;153976;1093;103145;-76
2021/06/07 08:08:39;;;;;;;4.55;3.10;;;;;;;22.22;43.79;100558.39;153975;1093;103234;-76
2021/06/07 08:11:44;;;;;;;2.85;2.58;;;;;;;22.25;44.79;100557.14;153956;1101;103195;-76
2021/06/07 08:14:48;;;;;;;3.63;2.93;;;;;;;22.34;44.76;100556.66;153942;1101;103221;-76
2021/06/07 08:17:53;;;;;;;3.70;3.03;;;;;;;22.44;43.60;100550.71;153919;1101;103585;-76
2021/06/07 08:20:58;;;;;;;3.85;2.88;;;;;;;22.50;44.57;100551.70;153965;1093;103195;-74
2021/06/07 08:24:03;;;;;;;4.47;3.23;;;;;;;22.56;44.64;100553.52;153923;1101;103279;-76
2021/06/07 08:27:08;;;;;;;3.97;3.00;;;;;;;22.64;44.71;100553.22;153942;1093;103103;-76
2021/06/07 08:30:15;;;;;;;3.83;2.93;;;;;;;22.71;44.39;100547.69;153954;1101;103125;-76
2021/06/07 08:33:20;;;;;;;3.47;2.80;;;;;;;22.78;44.09;100545.73;154001;1093;103132;-75
2021/06/07 08:36:25;;;;;;;3.03;2.73;;;;;;;22.82;43.67;100554.28;153939;1101;103125;-75
2021/06/07 08:39:30;;;;;;;3.15;2.80;;;;;;;22.88;43.44;100556.08;153916;1101;103221;-76
2021/06/07 08:42:37;;;;;;;3.50;3.10;;;;;;;22.92;43.35;100557.29;153986;1101;103298;-76
2021/06/07 08:45:42;;;;;;;5.98;3.10;;;;;;;22.98;43.05;100550.11;154009;1101;103097;-75
2021/06/07 08:48:47;;;;;;;4.70;3.20;;;;;;;23.03;43.20;100542.95;153949;1101;103620;-75
2021/06/07 08:51:53;;;;;;;3.08;2.78;;;;;;;23.02;41.79;100549.44;153975;1101;103099;-76
2021/06/07 08:54:57;;;;;;;3.68;3.00;;;;;;;23.04;43.02;100539.19;153933;1093;103240;-76
2021/06/07 08:58:04;;;;;;;3.65;3.35;;;;;;;23.09;42.29;100539.31;154121;1093;103194;-72
2021/06/07 09:01:10;;;;;;;4.18;3.20;;;;;;;23.16;42.45;100543.86;154103;1097;103189;-73
2021/06/07 09:04:18;;;;;;;3.40;3.00;;;;;;;23.18;42.32;100541.74;154030;1093;103192;-76
2021/06/07 09:07:23;;;;;;;4.27;3.20;;;;;;;23.17;41.54;100549.05;153963;1093;103159;-76
2021/06/07 09:10:30;;;;;;;3.93;3.10;;;;;;;23.18;42.37;100552.63;153955;1101;103270;-75
2021/06/07 09:13:35;;;;;;;3.77;3.00;;;;;;;23.24;42.46;100543.54;153984;1101;103112;-76
2021/06/07 09:16:40;;;;;;;3.20;2.90;;;;;;;23.30;42.40;100542.61;153947;1101;103198;-76
2021/06/07 09:19:46;;;;;;;3.90;2.95;;;;;;;23.29;41.85;100532.80;153983;1101;103115;-76
2021/06/07 09:22:53;;;;;;;3.40;3.10;;;;;;;23.35;42.55;100545.48;154001;1093;103317;-75
2021/06/07 09:25:58;;;;;;;3.37;3.07;;;;;;;23.37;42.24;100532.47;154015;1093;103227;-76
2021/06/07 09:29:05;;;;;;;4.00;2.95;;;;;;;23.42;41.77;100546.23;154027;1101;103196;-75
2021/06/07 09:32:19;;;;;;;5.88;2.88;;;;;;;23.43;41.65;100544.33;153942;1093;103547;-74
2021/06/07 09:35:24;;;;;;;3.98;2.68;;;;;;;23.46;41.60;100535.68;154064;1101;103160;-73
2021/06/07 09:38:29;;;;;;;4.75;2.90;;;;;;;23.48;39.08;100528.96;153981;1094;103125;-76
2021/06/07 09:41:45;;;;;;;4.38;2.88;;;;;;;23.43;41.11;100536.16;153965;1101;103583;-76
2021/06/07 09:44:52;;;;;;;3.67;2.47;;;;;;;23.39;39.85;100533.06;153977;1101;103143;-76
2021/06/07 09:48:11;;;;;;;2.83;2.23;;;;;;;23.36;40.01;100528.06;153980;1093;103167;-74
2021/06/07 09:51:20;;;;;;;3.37;2.40;;;;;;;23.42;40.05;100529.04;153959;1093;103195;-76
2021/06/07 09:54:26;;;;;;;3.53;2.60;;;;;;;23.50;40.66;100518.66;153984;1093;103192;-76
2021/06/07 09:57:52;;;;;;;3.38;2.70;;;;;;;23.64;40.74;100523.91;153913;1101;103191;-76
2021/06/07 10:00:56;;;;;;;2.70;2.50;;;;;;;23.74;40.35;100528.79;153943;1101;103187;-75
2021/06/07 10:04:02;;;;;;;3.95;2.63;;;;;;;23.75;39.64;100519.53;153979;1093;103115;-76
2021/06/07 10:07:10;;;;;;;3.15;2.70;;;;;;;23.72;39.94;100529.02;153974;1101;103196;-75
2021/06/07 10:10:20;;;;;;;2.70;2.40;;;;;;;23.79;39.84;100513.44;153999;1101;103206;-76
2021/06/07 10:13:33;;;;;;;4.10;2.90;;;;;;;23.86;38.76;100519.59;153964;1101;103232;-76
2021/06/07 10:16:48;;;;;;;5.53;2.80;;;;;;;23.91;39.14;100514.27;154102;1101;103200;-73
2021/06/07 10:20:46;;;;;;;3.90;2.50;;;;;;;23.93;38.50;100518.67;154012;1093;103187;-74
2021/06/07 10:23:27;;;;;;;4.60;3.00;;;;;;;23.90;38.47;100509.05;153937;1093;103211;-76
2021/06/07 10:26:32;;;;;;;2.90;2.50;;;;;;;23.90;38.86;100511.77;154034;1101;103135;-76
2021/06/07 10:29:41;;;;;;;2.60;2.40;;;;;;;23.91;38.69;100514.27;153940;1093;103278;-75
2021/06/07 10:32:47;;;;;;;3.35;2.70;;;;;;;24.01;38.83;100502.78;154052;1101;103201;-75
2021/06/07 10:35:53;;;;;;;3.70;2.30;;;;;;;24.08;38.61;100508.14;154136;1101;103125;-76
2021/06/07 10:39:37;;;;;;;3.40;2.68;;;;;;;24.13;38.62;100491.88;154060;1093;103148;-74
2021/06/07 10:42:56;;;;;;;4.00;2.90;;;;;;;24.12;38.39;100503.05;153947;1101;103171;-76
2021/06/07 10:46:28;;;;;;;3.60;2.60;;;;;;;24.19;37.77;100501.86;153997;1096;103261;-76
2021/06/07 10:49:42;;;;;;;2.60;2.40;;;;;;;24.16;38.29;100491.42;154045;1101;103190;-75
2021/06/07 10:52:54;;;;;;;2.90;2.40;;;;;;;24.23;37.43;100497.59;153972;1101;103312;-76
2021/06/07 10:56:08;;;;;;;4.03;2.70;;;;;;;24.20;37.27;100502.68;153920;1096;103192;-75
2021/06/07 10:59:16;;;;;;;3.00;2.40;;;;;;;24.20;37.65;100497.23;154000;1101;103154;-75
2021/06/07 11:02:24;;;;;;;2.97;2.53;;;;;;;24.27;37.89;100498.77;153980;1101;103723;-77
2021/06/07 11:05:31;;;;;;;2.63;2.30;;;;;;;24.34;35.87;100493.17;153997;1101;103218;-76
2021/06/07 11:08:38;;;;;;;3.67;2.33;;;;;;;24.37;36.57;100497.34;153938;1096;103198;-76
2021/06/07 11:11:48;;;;;;;2.83;2.20;;;;;;;24.38;36.44;100494.36;153942;1101;103130;-75
2021/06/07 11:15:14;;;;;;;2.80;2.50;;;;;;;24.42;34.93;100489.25;153935;1101;103173;-76
2021/06/07 11:18:25;;;;;;;4.25;2.70;;;;;;;24.41;35.62;100482.98;153959;1096;103235;-75
2021/06/07 11:21:32;;;;;;;2.45;2.20;;;;;;;24.47;36.96;100481.19;153984;1101;103168;-76
2021/06/07 11:24:38;;;;;;;2.80;2.50;;;;;;;24.55;36.37;100477.30;153927;1101;103243;-75
2021/06/07 11:27:44;;;;;;;2.80;2.40;;;;;;;24.60;36.41;100474.69;153949;1096;103135;-75
2021/06/07 11:30:49;;;;;;;3.07;2.43;;;;;;;24.63;36.56;100477.73;153991;1094;103585;-76
2021/06/07 11:33:56;;;;;;;3.30;2.50;;;;;;;24.68;36.26;100466.12;153963;1096;103128;-76
2021/06/07 11:37:00;;;;;;;3.30;2.30;;;;;;;24.75;33.45;100475.00;154123;1096;103148;-74
2021/06/07 11:40:07;;;;;;;2.97;2.30;;;;;;;24.86;33.46;100474.11;154076;1101;103575;-74
2021/06/07 11:43:12;;;;;;;2.70;2.15;;;;;;;24.88;35.16;100477.46;154126;1101;103100;-74
2021/06/07 11:46:56;;;;;;;4.60;2.43;;;;;;;24.93;34.79;100468.53;153967;1101;103167;-75
2021/06/07 11:50:09;;;;;;;4.77;2.57;;;;;;;24.89;34.77;100468.19;153926;1101;103217;-75
2021/06/07 11:53:17;;;;;;;2.60;2.40;;;;;;;24.92;34.58;100466.86;154006;1101;103129;-75
2021/06/07 11:56:24;;;;;;;2.80;2.58;;;;;;;24.93;34.22;100462.25;154024;1093;103245;-75
2021/06/07 11:59:31;;;;;;;3.90;2.53;;;;;;;24.93;33.60;100452.15;154023;1101;103186;-75
2021/06/07 12:02:36;;;;;;;2.43;2.23;;;;;;;24.95;33.93;100454.64;154001;1101;103163;-75
2021/06/07 12:05:41;;;;;;;3.98;2.40;;;;;;;24.98;30.93;100454.98;153988;1101;103338;-76
2021/06/07 12:08:46;;;;;;;3.90;2.40;;;;;;;25.04;34.00;100445.81;154012;1101;103200;-76
2021/06/07 12:11:52;;;;;;;3.60;2.20;;;;;;;25.13;33.85;100440.77;153941;1101;103139;-76
2021/06/07 12:14:56;;;;;;;3.50;2.83;;;;;;;25.21;33.28;100443.13;153973;1093;103125;-76
2021/06/07 12:18:01;;;;;;;2.33;2.13;;;;;;;25.27;31.98;100441.34;153968;1101;103110;-76
2021/06/07 12:21:10;;;;;;;2.58;2.38;;;;;;;25.34;32.71;100452.92;153929;1101;103244;-76
2021/06/07 12:24:19;;;;;;;3.38;2.30;;;;;;;25.36;32.62;100444.48;154027;1101;103135;-75
2021/06/07 12:30:57;;;;;;;2.50;2.30;;;;;;;25.53;33.11;100433.58;153963;1101;103099;-75
2021/06/07 12:34:10;;;;;;;2.50;2.30;;;;;;;25.67;33.21;100426.70;153962;1097;103233;-75
2021/06/07 12:37:27;;;;;;;2.93;2.73;;;;;;;25.79;32.51;100430.18;153958;1101;103276;-75
2021/06/07 12:40:35;;;;;;;3.00;2.70;;;;;;;25.82;31.43;100443.33;154001;1093;103522;-75
2021/06/07 12:43:45;;;;;;;3.83;2.80;;;;;;;25.76;31.71;100427.12;154019;1101;103195;-75
2021/06/07 12:46:52;;;;;;;2.90;2.70;;;;;;;25.70;31.97;100426.20;153989;1101;103235;-75
2021/06/07 12:50:08;;;;;;;4.13;2.68;;;;;;;25.68;31.96;100422.89;153963;1101;103566;-75
2021/06/07 12:53:14;;;;;;;3.53;2.80;;;;;;;25.64;32.02;100421.74;154037;1101;103196;-75
2021/06/07 12:56:20;;;;;;;5.50;2.60;;;;;;;25.68;32.43;100425.63;154102;1101;103561;-76
2021/06/07 12:59:31;;;;;;;5.05;2.60;;;;;;;25.71;31.52;100430.58;153998;1093;103351;-74
2021/06/07 13:02:36;;;;;;;2.97;2.70;;;;;;;25.75;32.33;100423.56;153944;1101;103128;-76
2021/06/07 13:05:41;;;;;;;3.87;2.43;;;;;;;25.80;32.07;100418.16;154003;1093;103126;-76
2021/06/07 13:08:54;;;;;;;6.98;2.70;;;;;;;25.86;31.80;100417.15;153970;1101;103279;-76
2021/06/07 13:11:59;;;;;;;3.30;2.80;;;;;;;25.85;31.90;100423.71;154030;1093;103202;-76
2021/06/07 13:15:05;;;;;;;2.73;2.47;;;;;;;25.86;32.14;100403.48;154014;1101;103149;-76
2021/06/07 13:18:10;;;;;;;2.93;2.58;;;;;;;25.89;32.96;100407.64;153993;1101;103214;-76
2021/06/07 13:21:18;;;;;;;3.65;2.60;;;;;;;25.89;32.03;100406.82;153965;1101;103304;-76
2021/06/07 13:24:33;;;;;;;2.80;2.53;;;;;;;25.90;31.84;100401.08;153976;1101;103267;-76
2021/06/07 13:27:38;;;;;;;3.35;2.60;;;;;;;25.89;31.87;100406.82;154041;1096;103243;-76
2021/06/07 13:30:43;;;;;;;3.40;2.57;;;;;;;25.92;31.73;100398.95;154062;1101;103114;-76
2021/06/07 13:33:48;;;;;;;3.77;2.70;;;;;;;25.91;31.81;100397.31;154056;1101;103190;-76
2021/06/07 13:37:01;;;;;;;3.30;3.00;;;;;;;25.94;30.68;100398.70;154114;1093;103171;-76
2021/06/07 13:40:16;;;;;;;3.30;3.00;;;;;;;25.90;31.34;100394.79;154063;1093;103187;-76
2021/06/07 13:43:23;;;;;;;3.20;2.90;;;;;;;25.92;32.19;100395.39;154002;1093;103158;-76
2021/06/07 13:46:29;;;;;;;3.57;3.27;;;;;;;25.96;31.52;100391.07;154014;1094;103192;-76
2021/06/07 13:49:34;;;;;;;3.85;3.55;;;;;;;25.91;31.59;100377.32;154118;1101;103144;-76
2021/06/07 13:52:44;;;;;;;3.60;3.20;;;;;;;25.84;31.16;100381.03;154105;1093;103234;-76
2021/06/07 13:55:51;;;;;;;3.50;3.20;;;;;;;25.88;32.00;100375.08;153948;1101;103094;-76
2021/06/07 13:58:56;;;;;;;5.43;3.40;;;;;;;25.86;32.14;100373.41;154031;1101;103139;-76
2021/06/07 14:02:00;;;;;;;4.63;3.30;;;;;;;25.79;31.75;100378.25;154043;1101;103115;-76
2021/06/07 14:05:06;;;;;;;3.58;3.28;;;;;;;25.86;32.00;100367.13;153989;1101;103128;-78
2021/06/07 14:08:13;;;;;;;3.60;3.30;;;;;;;25.97;32.07;100368.14;154410;1093;103278;-78
2021/06/07 14:11:22;;;;;;;3.93;3.30;;;;;;;25.92;32.02;100365.32;154071;1101;103218;-75